sensor_id;sensor_type;location;lat;lon;timestamp;pressure;altitude;pressure_sealevel;temperature;humidity
77112;BME280;66064;50.226;14.344;2023-02-28T00:01:24;100734.16;;;-1.01;76.71
77112;BME280;66064;50.226;14.344;2023-02-28T00:03:50;100736.31;;;-1.07;76.95
77112;BME280;66064;50.226;14.344;2023-02-28T00:06:16;100738.13;;;-1.06;76.95
77112;BME280;66064;50.226;14.344;2023-02-28T00:08:42;100730.06;;;-1.09;76.99
77112;BME280;66064;50.226;14.344;2023-02-28T00:11:13;100701.78;;;-1.26;77.17
77112;BME280;66064;50.226;14.344;2023-02-28T00:13:45;100715.78;;;-1.14;76.54
77112;BME280;66064;50.226;14.344;2023-02-28T00:16:19;100735.06;;;-1.12;76.84
77112;BME280;66064;50.226;14.344;2023-02-28T00:18:46;100714.59;;;-1.29;76.89
77112;BME280;66064;50.226;14.344;2023-02-28T00:21:16;100730.28;;;-1.18;77.69
77112;BME280;66064;50.226;14.344;2023-02-28T00:23:42;100730.41;;;-1.16;77.45
77112;BME280;66064;50.226;14.344;2023-02-28T00:26:08;100720.53;;;-1.20;76.97
77112;BME280;66064;50.226;14.344;2023-02-28T00:28:33;100737.78;;;-1.22;77.84
77112;BME280;66064;50.226;14.344;2023-02-28T00:31:00;100735.41;;;-1.19;77.75
77112;BME280;66064;50.226;14.344;2023-02-28T00:33:28;100710.28;;;-1.41;77.57
77112;BME280;66064;50.226;14.344;2023-02-28T00:36:05;100702.22;;;-1.44;77.88
77112;BME280;66064;50.226;14.344;2023-02-28T00:38:31;100723.69;;;-1.24;77.83
77112;BME280;66064;50.226;14.344;2023-02-28T00:40:57;100736.31;;;-1.19;77.27
77112;BME280;66064;50.226;14.344;2023-02-28T00:43:24;100734.94;;;-1.25;77.58
77112;BME280;66064;50.226;14.344;2023-02-28T00:45:50;100728.13;;;-1.23;77.19
77112;BME280;66064;50.226;14.344;2023-02-28T00:48:15;100711.44;;;-1.25;76.71
77112;BME280;66064;50.226;14.344;2023-02-28T00:50:41;100739.47;;;-1.11;76.95
77112;BME280;66064;50.226;14.344;2023-02-28T00:53:07;100730.41;;;-1.04;76.42
77112;BME280;66064;50.226;14.344;2023-02-28T00:55:33;100700.53;;;-1.20;76.37
77112;BME280;66064;50.226;14.344;2023-02-28T00:57:59;100724.28;;;-1.05;75.84
77112;BME280;66064;50.226;14.344;2023-02-28T01:00:25;100716.13;;;-0.98;75.71
77112;BME280;66064;50.226;14.344;2023-02-28T01:02:50;100731.06;;;-0.95;75.26
77112;BME280;66064;50.226;14.344;2023-02-28T01:05:16;100716.31;;;-1.07;75.94
77112;BME280;66064;50.226;14.344;2023-02-28T01:07:42;100727.34;;;-0.99;75.34
77112;BME280;66064;50.226;14.344;2023-02-28T01:10:08;100724.03;;;-0.96;75.03
77112;BME280;66064;50.226;14.344;2023-02-28T01:12:34;100714.28;;;-0.99;75.25
77112;BME280;66064;50.226;14.344;2023-02-28T01:15:00;100722.00;;;-0.89;74.11
77112;BME280;66064;50.226;14.344;2023-02-28T01:17:26;100723.16;;;-0.85;73.91
77112;BME280;66064;50.226;14.344;2023-02-28T01:19:54;100688.50;;;-1.06;74.45
77112;BME280;66064;50.226;14.344;2023-02-28T01:22:20;100716.44;;;-1.05;74.91
77112;BME280;66064;50.226;14.344;2023-02-28T01:24:47;100718.00;;;-0.95;75.10
77112;BME280;66064;50.226;14.344;2023-02-28T01:27:13;100712.00;;;-0.94;74.81
77112;BME280;66064;50.226;14.344;2023-02-28T01:29:39;100712.13;;;-0.93;74.70
77112;BME280;66064;50.226;14.344;2023-02-28T01:32:04;100689.28;;;-1.07;75.00
77112;BME280;66064;50.226;14.344;2023-02-28T01:34:30;100715.88;;;-0.89;75.10
77112;BME280;66064;50.226;14.344;2023-02-28T01:36:56;100703.25;;;-0.95;75.02
77112;BME280;66064;50.226;14.344;2023-02-28T01:39:25;100699.41;;;-1.00;74.70
77112;BME280;66064;50.226;14.344;2023-02-28T01:41:51;100709.50;;;-0.93;75.10
77112;BME280;66064;50.226;14.344;2023-02-28T01:47:21;100724.16;;;-0.95;75.54
77112;BME280;66064;50.226;14.344;2023-02-28T01:49:50;100692.81;;;-1.18;75.62
77112;BME280;66064;50.226;14.344;2023-02-28T01:52:17;100721.09;;;-1.01;76.05
77112;BME280;66064;50.226;14.344;2023-02-28T01:54:55;100698.59;;;-1.11;75.16
77112;BME280;66064;50.226;14.344;2023-02-28T01:57:28;100682.94;;;-1.22;76.00
77112;BME280;66064;50.226;14.344;2023-02-28T02:00:01;100702.13;;;-1.10;75.23
77112;BME280;66064;50.226;14.344;2023-02-28T02:02:35;100679.53;;;-1.21;76.33
77112;BME280;66064;50.226;14.344;2023-02-28T02:07:33;100708.59;;;-1.05;75.99
77112;BME280;66064;50.226;14.344;2023-02-28T02:15:34;100704.72;;;-1.10;75.42
77112;BME280;66064;50.226;14.344;2023-02-28T02:18:14;100692.25;;;-1.02;73.64
77112;BME280;66064;50.226;14.344;2023-02-28T02:21:13;100696.81;;;-1.00;73.38
77112;BME280;66064;50.226;14.344;2023-02-28T02:31:56;100701.44;;;-1.19;72.85
77112;BME280;66064;50.226;14.344;2023-02-28T02:34:41;100710.28;;;-1.41;73.93
77112;BME280;66064;50.226;14.344;2023-02-28T02:37:10;100707.00;;;-1.50;73.83
77112;BME280;66064;50.226;14.344;2023-02-28T02:39:53;100709.00;;;-1.46;74.18
77112;BME280;66064;50.226;14.344;2023-02-28T02:42:50;100688.34;;;-1.43;72.81
77112;BME280;66064;50.226;14.344;2023-02-28T02:45:26;100702.44;;;-1.41;73.27
77112;BME280;66064;50.226;14.344;2023-02-28T02:47:56;100697.69;;;-1.46;72.41
77112;BME280;66064;50.226;14.344;2023-02-28T02:50:29;100699.16;;;-1.50;72.82
77112;BME280;66064;50.226;14.344;2023-02-28T02:52:58;100706.75;;;-1.53;72.60
77112;BME280;66064;50.226;14.344;2023-02-28T02:55:26;100678.31;;;-1.83;73.71
77112;BME280;66064;50.226;14.344;2023-02-28T02:57:58;100702.94;;;-1.80;73.85
77112;BME280;66064;50.226;14.344;2023-02-28T03:00:30;100714.19;;;-1.81;73.83
77112;BME280;66064;50.226;14.344;2023-02-28T03:02:57;100711.75;;;-1.89;74.35
77112;BME280;66064;50.226;14.344;2023-02-28T03:05:51;100693.97;;;-2.17;74.77
77112;BME280;66064;50.226;14.344;2023-02-28T03:08:17;100710.47;;;-1.94;73.76
77112;BME280;66064;50.226;14.344;2023-02-28T03:10:45;100702.50;;;-2.07;74.37
77112;BME280;66064;50.226;14.344;2023-02-28T03:16:20;100713.66;;;-2.20;74.20
77112;BME280;66064;50.226;14.344;2023-02-28T03:21:36;100723.72;;;-2.25;74.83
77112;BME280;66064;50.226;14.344;2023-02-28T03:24:21;100727.06;;;-2.37;75.09
77112;BME280;66064;50.226;14.344;2023-02-28T03:26:57;100710.97;;;-2.43;74.61
77112;BME280;66064;50.226;14.344;2023-02-28T03:29:38;100691.31;;;-2.50;73.70
77112;BME280;66064;50.226;14.344;2023-02-28T03:32:20;100721.25;;;-2.45;74.47
77112;BME280;66064;50.226;14.344;2023-02-28T03:35:10;100717.19;;;-2.41;74.34
77112;BME280;66064;50.226;14.344;2023-02-28T03:37:40;100718.88;;;-2.42;74.56
77112;BME280;66064;50.226;14.344;2023-02-28T03:40:11;100700.97;;;-2.59;74.35
77112;BME280;66064;50.226;14.344;2023-02-28T03:42:41;100727.25;;;-2.46;74.52
77112;BME280;66064;50.226;14.344;2023-02-28T03:45:16;100712.41;;;-2.47;73.30
77112;BME280;66064;50.226;14.344;2023-02-28T03:47:52;100719.00;;;-2.62;75.41
77112;BME280;66064;50.226;14.344;2023-02-28T03:50:25;100712.25;;;-2.70;75.53
77112;BME280;66064;50.226;14.344;2023-02-28T03:55:42;100693.94;;;-2.82;74.48
77112;BME280;66064;50.226;14.344;2023-02-28T03:58:53;100720.31;;;-2.67;74.54
77112;BME280;66064;50.226;14.344;2023-02-28T04:01:45;100700.44;;;-2.77;74.20
77112;BME280;66064;50.226;14.344;2023-02-28T04:04:13;100713.56;;;-2.75;74.85
77112;BME280;66064;50.226;14.344;2023-02-28T04:06:40;100717.25;;;-2.84;76.17
77112;BME280;66064;50.226;14.344;2023-02-28T04:09:07;100687.88;;;-2.93;75.29
77112;BME280;66064;50.226;14.344;2023-02-28T04:11:38;100705.88;;;-2.96;75.67
77112;BME280;66064;50.226;14.344;2023-02-28T04:14:06;100722.00;;;-3.00;76.93
77112;BME280;66064;50.226;14.344;2023-02-28T04:16:35;100722.22;;;-2.87;75.20
77112;BME280;66064;50.226;14.344;2023-02-28T04:19:05;100710.69;;;-3.00;75.79
77112;BME280;66064;50.226;14.344;2023-02-28T04:21:38;100725.13;;;-3.04;75.74
77112;BME280;66064;50.226;14.344;2023-02-28T04:24:12;100706.19;;;-3.23;77.15
77112;BME280;66064;50.226;14.344;2023-02-28T04:26:44;100727.25;;;-3.20;77.88
77112;BME280;66064;50.226;14.344;2023-02-28T04:29:12;100714.28;;;-3.30;77.98
77112;BME280;66064;50.226;14.344;2023-02-28T04:31:39;100723.88;;;-3.19;76.02
77112;BME280;66064;50.226;14.344;2023-02-28T04:34:05;100711.16;;;-3.26;77.20
77112;BME280;66064;50.226;14.344;2023-02-28T04:36:32;100717.66;;;-3.31;76.78
77112;BME280;66064;50.226;14.344;2023-02-28T04:38:58;100723.56;;;-3.44;77.51
77112;BME280;66064;50.226;14.344;2023-02-28T04:41:24;100723.19;;;-3.59;78.10
77112;BME280;66064;50.226;14.344;2023-02-28T04:43:53;100730.97;;;-3.69;79.12
77112;BME280;66064;50.226;14.344;2023-02-28T04:46:19;100740.75;;;-3.76;78.16
77112;BME280;66064;50.226;14.344;2023-02-28T04:48:45;100735.94;;;-3.92;79.57
77112;BME280;66064;50.226;14.344;2023-02-28T04:51:13;100737.72;;;-4.01;80.07
77112;BME280;66064;50.226;14.344;2023-02-28T04:53:40;100731.75;;;-4.10;79.96
77112;BME280;66064;50.226;14.344;2023-02-28T04:56:07;100711.81;;;-4.30;80.23
77112;BME280;66064;50.226;14.344;2023-02-28T04:58:34;100741.88;;;-4.13;80.57
77112;BME280;66064;50.226;14.344;2023-02-28T05:01:05;100730.69;;;-4.22;80.80
77112;BME280;66064;50.226;14.344;2023-02-28T05:03:42;100744.34;;;-4.05;80.92
77112;BME280;66064;50.226;14.344;2023-02-28T05:06:09;100745.03;;;-4.07;80.53
77112;BME280;66064;50.226;14.344;2023-02-28T05:08:35;100737.97;;;-4.18;80.56
77112;BME280;66064;50.226;14.344;2023-02-28T05:11:01;100749.81;;;-4.22;80.67
77112;BME280;66064;50.226;14.344;2023-02-28T05:13:27;100735.34;;;-4.39;81.27
77112;BME280;66064;50.226;14.344;2023-02-28T05:15:54;100741.31;;;-4.30;81.08
77112;BME280;66064;50.226;14.344;2023-02-28T05:18:20;100760.06;;;-4.24;81.19
77112;BME280;66064;50.226;14.344;2023-02-28T05:20:46;100760.84;;;-4.25;81.09
77112;BME280;66064;50.226;14.344;2023-02-28T05:23:12;100735.59;;;-4.36;80.46
77112;BME280;66064;50.226;14.344;2023-02-28T05:25:40;100755.38;;;-4.28;80.87
77112;BME280;66064;50.226;14.344;2023-02-28T05:28:06;100751.56;;;-4.41;80.63
77112;BME280;66064;50.226;14.344;2023-02-28T05:30:32;100775.88;;;-4.31;81.27
77112;BME280;66064;50.226;14.344;2023-02-28T05:32:58;100749.47;;;-4.45;81.96
77112;BME280;66064;50.226;14.344;2023-02-28T05:35:24;100770.81;;;-4.39;81.75
77112;BME280;66064;50.226;14.344;2023-02-28T05:37:50;100765.19;;;-4.44;82.57
77112;BME280;66064;50.226;14.344;2023-02-28T05:40:16;100755.56;;;-4.55;82.79
77112;BME280;66064;50.226;14.344;2023-02-28T05:42:42;100775.53;;;-4.54;82.25
77112;BME280;66064;50.226;14.344;2023-02-28T05:45:09;100768.91;;;-4.61;83.27
77112;BME280;66064;50.226;14.344;2023-02-28T05:47:35;100770.56;;;-4.71;82.40
77112;BME280;66064;50.226;14.344;2023-02-28T05:50:02;100766.56;;;-4.86;82.34
77112;BME280;66064;50.226;14.344;2023-02-28T05:52:28;100766.81;;;-4.94;83.01
77112;BME280;66064;50.226;14.344;2023-02-28T05:54:56;100781.78;;;-4.81;83.45
77112;BME280;66064;50.226;14.344;2023-02-28T05:57:25;100774.63;;;-4.83;83.90
77112;BME280;66064;50.226;14.344;2023-02-28T05:59:51;100720.22;;;-5.21;83.39
77112;BME280;66064;50.226;14.344;2023-02-28T06:02:17;100777.75;;;-4.87;84.01
77112;BME280;66064;50.226;14.344;2023-02-28T06:04:44;100800.31;;;-4.86;84.14
77112;BME280;66064;50.226;14.344;2023-02-28T06:07:10;100783.56;;;-4.90;84.09
77112;BME280;66064;50.226;14.344;2023-02-28T06:09:36;100795.81;;;-4.79;84.47
77112;BME280;66064;50.226;14.344;2023-02-28T06:12:04;100770.44;;;-4.91;83.21
77112;BME280;66064;50.226;14.344;2023-02-28T06:14:32;100799.66;;;-4.65;83.15
77112;BME280;66064;50.226;14.344;2023-02-28T06:16:59;100792.91;;;-4.63;82.36
77112;BME280;66064;50.226;14.344;2023-02-28T06:19:26;100808.44;;;-4.44;81.73
77112;BME280;66064;50.226;14.344;2023-02-28T06:21:53;100813.16;;;-4.40;81.67
77112;BME280;66064;50.226;14.344;2023-02-28T06:24:21;100817.31;;;-4.32;81.90
77112;BME280;66064;50.226;14.344;2023-02-28T06:26:47;100800.81;;;-4.33;80.93
77112;BME280;66064;50.226;14.344;2023-02-28T06:29:14;100825.03;;;-4.24;80.58
77112;BME280;66064;50.226;14.344;2023-02-28T06:31:44;100824.28;;;-4.12;80.31
77112;BME280;66064;50.226;14.344;2023-02-28T06:34:11;100820.53;;;-4.06;80.51
77112;BME280;66064;50.226;14.344;2023-02-28T06:36:38;100794.28;;;-4.09;79.20
77112;BME280;66064;50.226;14.344;2023-02-28T06:39:06;100821.47;;;-3.85;78.35
77112;BME280;66064;50.226;14.344;2023-02-28T06:41:31;100804.34;;;-3.63;77.85
77112;BME280;66064;50.226;14.344;2023-02-28T06:44:14;100829.59;;;-3.11;75.64
77112;BME280;66064;50.226;14.344;2023-02-28T06:46:42;100838.13;;;-2.92;75.65
77112;BME280;66064;50.226;14.344;2023-02-28T06:49:09;100823.25;;;-2.72;73.08
77112;BME280;66064;50.226;14.344;2023-02-28T06:51:36;100842.78;;;-2.03;72.19
77112;BME280;66064;50.226;14.344;2023-02-28T06:54:03;100831.88;;;-0.87;67.99
77112;BME280;66064;50.226;14.344;2023-02-28T06:56:29;100816.84;;;0.28;61.60
77112;BME280;66064;50.226;14.344;2023-02-28T06:58:55;100823.91;;;1.70;58.74
77112;BME280;66064;50.226;14.344;2023-02-28T07:01:21;100822.28;;;2.54;54.63
77112;BME280;66064;50.226;14.344;2023-02-28T07:03:51;100812.13;;;3.17;53.13
77112;BME280;66064;50.226;14.344;2023-02-28T07:06:19;100796.94;;;3.72;50.09
77112;BME280;66064;50.226;14.344;2023-02-28T07:08:46;100794.59;;;5.07;46.88
77112;BME280;66064;50.226;14.344;2023-02-28T07:11:12;100797.41;;;5.44;45.36
77112;BME280;66064;50.226;14.344;2023-02-28T07:13:38;100801.56;;;6.47;43.10
77112;BME280;66064;50.226;14.344;2023-02-28T07:16:05;100812.44;;;6.16;42.07
77112;BME280;66064;50.226;14.344;2023-02-28T07:18:32;100806.00;;;6.86;41.00
77112;BME280;66064;50.226;14.344;2023-02-28T07:20:58;100781.72;;;7.16;38.83
77112;BME280;66064;50.226;14.344;2023-02-28T07:23:24;100799.59;;;7.84;38.72
77112;BME280;66064;50.226;14.344;2023-02-28T07:25:50;100778.44;;;8.51;37.50
77112;BME280;66064;50.226;14.344;2023-02-28T07:28:16;100789.16;;;8.54;36.43
77112;BME280;66064;50.226;14.344;2023-02-28T07:30:42;100799.97;;;8.15;36.46
77112;BME280;66064;50.226;14.344;2023-02-28T07:33:08;100806.88;;;8.10;37.23
77112;BME280;66064;50.226;14.344;2023-02-28T07:35:34;100805.81;;;8.97;34.18
77112;BME280;66064;50.226;14.344;2023-02-28T07:38:01;100803.72;;;9.12;34.25
77112;BME280;66064;50.226;14.344;2023-02-28T07:40:28;100812.44;;;9.08;34.23
77112;BME280;66064;50.226;14.344;2023-02-28T07:42:54;100798.50;;;8.90;34.71
77112;BME280;66064;50.226;14.344;2023-02-28T07:45:20;100802.28;;;8.28;35.48
77112;BME280;66064;50.226;14.344;2023-02-28T07:47:46;100803.81;;;9.16;34.70
77112;BME280;66064;50.226;14.344;2023-02-28T07:50:15;100795.00;;;7.80;35.87
77112;BME280;66064;50.226;14.344;2023-02-28T07:52:41;100805.41;;;8.18;34.75
77112;BME280;66064;50.226;14.344;2023-02-28T07:55:08;100809.69;;;8.15;34.43
77112;BME280;66064;50.226;14.344;2023-02-28T07:57:35;100800.25;;;8.21;34.17
77112;BME280;66064;50.226;14.344;2023-02-28T08:00:05;100810.41;;;7.67;35.64
77112;BME280;66064;50.226;14.344;2023-02-28T08:02:32;100810.72;;;8.63;34.24
77112;BME280;66064;50.226;14.344;2023-02-28T08:04:57;100806.38;;;9.63;32.01
77112;BME280;66064;50.226;14.344;2023-02-28T08:07:24;100819.53;;;8.17;33.39
77112;BME280;66064;50.226;14.344;2023-02-28T08:09:49;100783.31;;;9.11;32.88
77112;BME280;66064;50.226;14.344;2023-02-28T08:12:15;100803.03;;;8.94;31.93
77112;BME280;66064;50.226;14.344;2023-02-28T08:14:41;100805.81;;;9.21;31.94
77112;BME280;66064;50.226;14.344;2023-02-28T08:17:07;100799.47;;;10.50;30.62
77112;BME280;66064;50.226;14.344;2023-02-28T08:19:33;100806.22;;;9.59;30.57
77112;BME280;66064;50.226;14.344;2023-02-28T08:21:59;100791.28;;;10.16;30.39
77112;BME280;66064;50.226;14.344;2023-02-28T08:24:24;100793.63;;;9.28;31.13
77112;BME280;66064;50.226;14.344;2023-02-28T08:26:51;100782.66;;;10.51;30.49
77112;BME280;66064;50.226;14.344;2023-02-28T08:29:16;100786.75;;;10.13;30.06
77112;BME280;66064;50.226;14.344;2023-02-28T08:31:43;100748.25;;;10.59;29.89
77112;BME280;66064;50.226;14.344;2023-02-28T08:34:09;100787.56;;;10.11;29.65
77112;BME280;66064;50.226;14.344;2023-02-28T08:36:36;100793.94;;;10.16;30.17
77112;BME280;66064;50.226;14.344;2023-02-28T08:39:02;100794.53;;;10.94;29.44
77112;BME280;66064;50.226;14.344;2023-02-28T08:41:29;100790.84;;;10.29;28.87
77112;BME280;66064;50.226;14.344;2023-02-28T08:43:55;100788.63;;;10.44;29.25
77112;BME280;66064;50.226;14.344;2023-02-28T08:46:22;100794.94;;;11.41;27.24
77112;BME280;66064;50.226;14.344;2023-02-28T08:48:52;100799.44;;;13.36;25.07
77112;BME280;66064;50.226;14.344;2023-02-28T08:51:19;100752.75;;;11.94;26.15
77112;BME280;66064;50.226;14.344;2023-02-28T08:53:59;100801.47;;;10.29;29.15
77112;BME280;66064;50.226;14.344;2023-02-28T08:56:27;100803.47;;;9.82;29.73
77112;BME280;66064;50.226;14.344;2023-02-28T08:58:55;100773.69;;;11.44;27.33
77112;BME280;66064;50.226;14.344;2023-02-28T09:01:27;100789.88;;;12.22;26.90
77112;BME280;66064;50.226;14.344;2023-02-28T09:03:54;100778.63;;;11.29;27.16
77112;BME280;66064;50.226;14.344;2023-02-28T09:06:23;100767.59;;;10.24;29.17
77112;BME280;66064;50.226;14.344;2023-02-28T09:08:49;100793.28;;;9.96;29.48
77112;BME280;66064;50.226;14.344;2023-02-28T09:11:16;100792.59;;;10.59;28.85
77112;BME280;66064;50.226;14.344;2023-02-28T09:13:42;100778.53;;;10.33;28.40
77112;BME280;66064;50.226;14.344;2023-02-28T09:16:11;100765.84;;;11.15;27.74
77112;BME280;66064;50.226;14.344;2023-02-28T09:18:38;100781.16;;;11.91;27.15
77112;BME280;66064;50.226;14.344;2023-02-28T09:21:05;100793.34;;;10.83;27.15
77112;BME280;66064;50.226;14.344;2023-02-28T09:23:31;100785.84;;;12.02;26.37
77112;BME280;66064;50.226;14.344;2023-02-28T09:25:57;100804.44;;;10.68;27.01
77112;BME280;66064;50.226;14.344;2023-02-28T09:28:23;100797.38;;;11.00;27.78
77112;BME280;66064;50.226;14.344;2023-02-28T09:30:52;100786.63;;;12.76;25.05
77112;BME280;66064;50.226;14.344;2023-02-28T09:33:20;100764.63;;;11.36;27.22
77112;BME280;66064;50.226;14.344;2023-02-28T09:35:51;100779.78;;;10.75;27.48
77112;BME280;66064;50.226;14.344;2023-02-28T09:38:17;100784.28;;;12.10;25.55
77112;BME280;66064;50.226;14.344;2023-02-28T09:40:56;100782.13;;;13.65;24.10
77112;BME280;66064;50.226;14.344;2023-02-28T09:43:24;100783.00;;;14.18;23.27
77112;BME280;66064;50.226;14.344;2023-02-28T09:46:05;100780.78;;;13.90;23.59
77112;BME280;66064;50.226;14.344;2023-02-28T09:48:39;100779.69;;;14.36;22.56
77112;BME280;66064;50.226;14.344;2023-02-28T09:53:39;100783.84;;;14.14;22.94
77112;BME280;66064;50.226;14.344;2023-02-28T09:56:12;100789.66;;;15.14;22.18
77112;BME280;66064;50.226;14.344;2023-02-28T09:59:14;100794.88;;;12.86;23.46
77112;BME280;66064;50.226;14.344;2023-02-28T10:10:22;100797.06;;;14.04;22.51
77112;BME280;66064;50.226;14.344;2023-02-28T10:12:53;100743.78;;;12.29;22.96
77112;BME280;66064;50.226;14.344;2023-02-28T10:15:23;100767.50;;;13.43;23.88
77112;BME280;66064;50.226;14.344;2023-02-28T10:17:54;100793.69;;;13.16;23.09
77112;BME280;66064;50.226;14.344;2023-02-28T10:20:24;100761.78;;;13.73;22.70
77112;BME280;66064;50.226;14.344;2023-02-28T10:23:21;100789.63;;;12.50;25.10
77112;BME280;66064;50.226;14.344;2023-02-28T10:26:20;100796.09;;;11.83;25.30
77112;BME280;66064;50.226;14.344;2023-02-28T10:28:47;100761.13;;;12.48;23.58
77112;BME280;66064;50.226;14.344;2023-02-28T10:31:18;100794.78;;;12.82;23.79
77112;BME280;66064;50.226;14.344;2023-02-28T10:33:45;100784.38;;;12.53;24.35
77112;BME280;66064;50.226;14.344;2023-02-28T10:36:16;100782.03;;;11.90;24.93
77112;BME280;66064;50.226;14.344;2023-02-28T10:38:43;100782.41;;;12.45;24.60
77112;BME280;66064;50.226;14.344;2023-02-28T10:41:15;100781.81;;;11.81;24.62
77112;BME280;66064;50.226;14.344;2023-02-28T10:43:42;100773.41;;;13.25;23.32
77112;BME280;66064;50.226;14.344;2023-02-28T10:48:37;100766.13;;;12.34;25.08
77112;BME280;66064;50.226;14.344;2023-02-28T10:51:07;100759.50;;;13.00;23.77
77112;BME280;66064;50.226;14.344;2023-02-28T10:53:40;100757.88;;;14.07;23.23
77112;BME280;66064;50.226;14.344;2023-02-28T10:58:52;100772.59;;;13.79;22.55
77112;BME280;66064;50.226;14.344;2023-02-28T11:01:21;100762.78;;;13.28;24.33
77112;BME280;66064;50.226;14.344;2023-02-28T11:03:49;100744.56;;;13.57;22.38
77112;BME280;66064;50.226;14.344;2023-02-28T11:08:57;100751.38;;;13.39;23.04
77112;BME280;66064;50.226;14.344;2023-02-28T11:11:26;100752.78;;;13.18;23.07
77112;BME280;66064;50.226;14.344;2023-02-28T11:13:56;100757.19;;;13.16;23.64
77112;BME280;66064;50.226;14.344;2023-02-28T11:16:32;100763.72;;;13.30;23.11
77112;BME280;66064;50.226;14.344;2023-02-28T11:18:58;100726.69;;;13.55;22.83
77112;BME280;66064;50.226;14.344;2023-02-28T11:21:34;100755.22;;;13.54;23.33
77112;BME280;66064;50.226;14.344;2023-02-28T11:26:39;100749.09;;;14.19;22.49
77112;BME280;66064;50.226;14.344;2023-02-28T11:29:19;100747.13;;;13.05;24.65
77112;BME280;66064;50.226;14.344;2023-02-28T11:32:02;100750.06;;;12.73;24.06
77112;BME280;66064;50.226;14.344;2023-02-28T11:34:28;100728.25;;;12.52;25.12
77112;BME280;66064;50.226;14.344;2023-02-28T11:36:56;100725.84;;;13.09;24.24
77112;BME280;66064;50.226;14.344;2023-02-28T11:39:23;100749.78;;;12.59;23.57
77112;BME280;66064;50.226;14.344;2023-02-28T11:41:59;100738.56;;;12.76;24.03
77112;BME280;66064;50.226;14.344;2023-02-28T11:44:43;100737.97;;;12.08;24.41
77112;BME280;66064;50.226;14.344;2023-02-28T12:08:53;100710.31;;;13.89;22.75
77112;BME280;66064;50.226;14.344;2023-02-28T12:11:37;100716.94;;;13.57;23.45
77112;BME280;66064;50.226;14.344;2023-02-28T12:14:30;100717.22;;;13.22;23.73
77112;BME280;66064;50.226;14.344;2023-02-28T12:17:31;100699.13;;;13.59;23.75
77112;BME280;66064;50.226;14.344;2023-02-28T12:20:08;100713.22;;;13.47;24.38
77112;BME280;66064;50.226;14.344;2023-02-28T12:27:55;100693.31;;;13.31;24.65
77112;BME280;66064;50.226;14.344;2023-02-28T12:30:25;100710.44;;;13.43;24.49
77112;BME280;66064;50.226;14.344;2023-02-28T12:33:11;100678.50;;;14.09;23.80
77112;BME280;66064;50.226;14.344;2023-02-28T12:35:48;100695.47;;;14.13;24.00
77112;BME280;66064;50.226;14.344;2023-02-28T12:38:27;100696.59;;;13.15;24.00
77112;BME280;66064;50.226;14.344;2023-02-28T12:41:03;100709.31;;;12.82;23.90
77112;BME280;66064;50.226;14.344;2023-02-28T12:43:38;100662.66;;;11.80;26.26
77112;BME280;66064;50.226;14.344;2023-02-28T12:46:14;100703.31;;;12.95;25.81
77112;BME280;66064;50.226;14.344;2023-02-28T12:48:47;100703.38;;;11.75;25.27
77112;BME280;66064;50.226;14.344;2023-02-28T12:51:15;100674.06;;;11.39;26.84
77112;BME280;66064;50.226;14.344;2023-02-28T13:10:09;100691.31;;;11.54;26.44
77112;BME280;66064;50.226;14.344;2023-02-28T13:12:35;100690.09;;;13.03;25.47
77112;BME280;66064;50.226;14.344;2023-02-28T13:15:16;100671.38;;;12.56;25.30
77112;BME280;66064;50.226;14.344;2023-02-28T13:17:56;100636.06;;;11.47;26.42
77112;BME280;66064;50.226;14.344;2023-02-28T13:20:37;100678.44;;;11.35;26.59
77112;BME280;66064;50.226;14.344;2023-02-28T13:26:20;100677.63;;;10.70;28.63
77112;BME280;66064;50.226;14.344;2023-02-28T13:31:14;100695.75;;;10.22;28.62
77112;BME280;66064;50.226;14.344;2023-02-28T13:38:47;100689.59;;;10.56;27.54
77112;BME280;66064;50.226;14.344;2023-02-28T13:44:05;100676.88;;;10.44;28.09
77112;BME280;66064;50.226;14.344;2023-02-28T13:46:34;100660.25;;;10.22;28.68
77112;BME280;66064;50.226;14.344;2023-02-28T13:51:50;100694.25;;;8.47;31.51
77112;BME280;66064;50.226;14.344;2023-02-28T14:00:20;100685.38;;;7.33;34.94
77112;BME280;66064;50.226;14.344;2023-02-28T14:05:34;100684.28;;;7.07;36.06
77112;BME280;66064;50.226;14.344;2023-02-28T14:10:49;100671.06;;;6.65;36.79
77112;BME280;66064;50.226;14.344;2023-02-28T14:15:58;100681.75;;;6.28;38.40
77112;BME280;66064;50.226;14.344;2023-02-28T14:18:27;100686.66;;;6.40;37.84
77112;BME280;66064;50.226;14.344;2023-02-28T14:32:10;100678.53;;;5.79;39.07
77112;BME280;66064;50.226;14.344;2023-02-28T14:35:13;100655.72;;;5.62;38.58
77112;BME280;66064;50.226;14.344;2023-02-28T14:37:37;100668.78;;;5.41;39.05
77112;BME280;66064;50.226;14.344;2023-02-28T14:40:12;100667.66;;;5.36;39.09
77112;BME280;66064;50.226;14.344;2023-02-28T14:42:46;100665.56;;;5.29;39.60
77112;BME280;66064;50.226;14.344;2023-02-28T14:45:20;100656.50;;;5.24;39.62
77112;BME280;66064;50.226;14.344;2023-02-28T14:47:49;100642.78;;;5.31;40.49
77112;BME280;66064;50.226;14.344;2023-02-28T14:50:24;100656.06;;;5.33;41.71
77112;BME280;66064;50.226;14.344;2023-02-28T14:52:52;100658.47;;;5.28;40.70
77112;BME280;66064;50.226;14.344;2023-02-28T14:55:30;100661.50;;;5.18;40.71
77112;BME280;66064;50.226;14.344;2023-02-28T14:58:04;100631.81;;;4.86;40.06
77112;BME280;66064;50.226;14.344;2023-02-28T15:00:34;100637.91;;;4.85;41.18
77112;BME280;66064;50.226;14.344;2023-02-28T15:03:33;100665.69;;;4.79;40.68
77112;BME280;66064;50.226;14.344;2023-02-28T15:06:17;100658.88;;;4.66;40.01
77112;BME280;66064;50.226;14.344;2023-02-28T15:08:45;100663.53;;;4.54;41.30
77112;BME280;66064;50.226;14.344;2023-02-28T15:11:15;100668.81;;;4.54;41.56
77112;BME280;66064;50.226;14.344;2023-02-28T15:13:53;100668.81;;;4.54;41.83